Time;durP1;ratioP1;P1;durP2;ratioP2;P2;SDS_P1;SDS_P2;PMS_P1;PMS_P2;Temp;Humidity;BMP_temperature;BMP_pressure;BME280_temperature;BME280_humidity;BME280_pressure;Samples;Min_cycle;Max_cycle;Signal;HPM_P1;HPM_P2
2023/06/08 00:00:05;;;;;;;7.00;2.70;;;;;;;20.47;58.16;101267.41;5076292;28;20852;-69
2023/06/08 00:02:32;;;;;;;7.50;2.90;;;;;;;20.41;58.59;101267.69;5076252;28;20461;-69
2023/06/08 00:05:02;;;;;;;6.83;2.53;;;;;;;20.39;58.79;101261.72;5076253;28;20464;-69
2023/06/08 00:07:29;;;;;;;10.83;3.83;;;;;;;20.33;58.99;101262.31;5076182;28;20446;-69
2023/06/08 00:09:58;;;;;;;6.10;2.30;;;;;;;20.31;59.27;101259.91;5075859;28;20538;-69
2023/06/08 00:12:25;;;;;;;6.70;2.53;;;;;;;20.31;58.71;101270.91;5075766;28;20867;-69
2023/06/08 00:14:51;;;;;;;9.03;3.00;;;;;;;20.30;59.45;101265.78;5076044;28;20448;-69
2023/06/08 00:17:18;;;;;;;6.23;2.90;;;;;;;20.25;58.99;101266.81;5076036;28;20540;-69
2023/06/08 00:19:46;;;;;;;6.03;2.23;;;;;;;20.24;59.74;101261.69;5075883;28;20847;-69
2023/06/08 00:22:13;;;;;;;7.60;2.17;;;;;;;20.21;60.28;101265.13;5075912;28;20532;-69
2023/06/08 00:24:40;;;;;;;6.77;2.60;;;;;;;20.17;59.37;101270.50;5075499;28;20930;-69
2023/06/08 00:27:07;;;;;;;7.17;2.67;;;;;;;20.14;59.84;101257.44;5075841;28;20484;-69
2023/06/08 00:29:34;;;;;;;6.97;2.57;;;;;;;20.13;59.73;101264.91;5075433;28;20468;-69
2023/06/08 00:32:01;;;;;;;10.00;2.73;;;;;;;20.07;59.24;101251.75;5075764;28;20895;-69
2023/06/08 00:34:28;;;;;;;7.80;3.00;;;;;;;20.06;58.71;101256.47;5075677;28;20568;-69
2023/06/08 00:36:56;;;;;;;9.07;3.27;;;;;;;20.05;59.67;101245.78;5075640;28;20476;-69
2023/06/08 00:39:23;;;;;;;6.77;2.30;;;;;;;19.95;60.00;101257.28;5075246;28;20998;-69
2023/06/08 00:41:49;;;;;;;7.53;2.67;;;;;;;19.95;58.59;101251.78;5075559;28;20441;-69
2023/06/08 00:44:16;;;;;;;9.67;2.90;;;;;;;19.87;59.09;101256.28;5075212;28;20974;-69
2023/06/08 00:46:43;;;;;;;8.10;2.87;;;;;;;19.83;59.54;101249.88;5075486;28;20442;-69
2023/06/08 00:49:15;;;;;;;6.83;3.00;;;;;;;19.79;59.14;101247.03;5075415;28;20444;-69
2023/06/08 00:51:43;;;;;;;8.37;2.97;;;;;;;19.79;59.30;101255.28;5075415;28;20445;-69
2023/06/08 00:54:14;;;;;;;6.60;2.90;;;;;;;19.75;59.69;101248.06;5075242;28;20527;-69
2023/06/08 00:56:42;;;;;;;8.60;2.60;;;;;;;19.71;60.40;101252.66;5075351;28;20429;-69
2023/06/08 00:59:10;;;;;;;9.43;3.67;;;;;;;19.68;60.79;101251.41;5075160;28;20481;-69
2023/06/08 01:01:38;;;;;;;7.53;2.80;;;;;;;19.62;60.68;101244.53;5075189;28;20442;-69
2023/06/08 01:04:06;;;;;;;8.23;2.87;;;;;;;19.62;59.77;101244.53;5074454;28;20465;-69
2023/06/08 01:06:35;;;;;;;8.17;3.13;;;;;;;19.60;60.59;101252.28;5074840;28;20453;-69
2023/06/08 01:09:14;;;;;;;7.60;2.67;;;;;;;19.60;60.94;101252.28;5075109;28;20956;-69
2023/06/08 01:11:52;;;;;;;7.10;2.40;;;;;;;19.59;60.14;101251.50;5075040;28;20437;-69
2023/06/08 01:14:26;;;;;;;6.80;2.80;;;;;;;19.57;61.76;101242.00;5074909;28;20826;-69
2023/06/08 01:16:56;;;;;;;7.07;2.73;;;;;;;19.52;62.38;101250.47;5074637;28;20425;-68
2023/06/08 01:19:43;;;;;;;8.27;2.70;;;;;;;19.46;62.68;101249.09;5074494;28;20437;-68
2023/06/08 01:22:13;;;;;;;9.53;3.17;;;;;;;19.39;63.20;101239.50;5074457;28;20512;-69
2023/06/08 01:24:50;;;;;;;7.20;2.57;;;;;;;19.34;63.23;101244.41;5074404;28;20425;-69
2023/06/08 01:27:17;;;;;;;7.40;3.00;;;;;;;19.31;63.23;101234.94;5074422;28;20430;-69
2023/06/08 01:29:45;;;;;;;11.20;2.87;;;;;;;19.29;62.75;101241.91;5074305;28;20499;-68
2023/06/08 01:32:11;;;;;;;7.47;2.67;;;;;;;19.22;63.44;101236.19;5074210;28;20857;-68
2023/06/08 01:34:39;;;;;;;10.13;2.60;;;;;;;19.21;64.19;101249.09;5074499;28;20477;-69
2023/06/08 01:37:14;;;;;;;8.33;2.57;;;;;;;19.16;63.65;101238.34;5074510;28;20514;-69
2023/06/08 01:39:47;;;;;;;10.30;3.27;;;;;;;19.10;64.40;101228.75;5074385;28;20476;-69
2023/06/08 01:42:18;;;;;;;7.10;2.70;;;;;;;19.02;63.83;101227.72;5074037;28;20433;-69
2023/06/08 01:44:51;;;;;;;7.43;2.87;;;;;;;18.96;63.58;101229.09;5074395;28;20422;-69
2023/06/08 01:47:18;;;;;;;6.63;2.60;;;;;;;18.93;63.32;101224.25;5074048;28;20426;-69
2023/06/08 01:49:46;;;;;;;8.00;2.73;;;;;;;18.88;63.72;101228.03;5074247;28;20434;-69
2023/06/08 01:52:13;;;;;;;7.23;2.50;;;;;;;18.85;64.35;101225.16;5073824;28;20442;-68
2023/06/08 01:54:40;;;;;;;6.77;2.63;;;;;;;18.84;64.93;101223.56;5073843;28;20484;-69
2023/06/08 01:57:09;;;;;;;7.70;3.40;;;;;;;18.84;65.14;101218.09;5074080;28;20437;-68
2023/06/08 01:59:35;;;;;;;8.03;3.00;;;;;;;18.80;65.74;101225.41;5073958;28;20441;-69
2023/06/08 02:02:02;;;;;;;6.63;2.63;;;;;;;18.73;65.21;101220.47;5073670;28;20532;-69
2023/06/08 02:04:28;;;;;;;7.90;2.93;;;;;;;18.67;64.81;101211.63;5073515;28;20913;-69
2023/06/08 02:06:55;;;;;;;6.53;2.63;;;;;;;18.65;65.10;101213.13;5073689;28;20971;-69
2023/06/08 02:09:22;;;;;;;6.80;2.73;;;;;;;18.62;65.44;101220.06;5073896;28;20445;-68
2023/06/08 02:11:49;;;;;;;7.23;2.87;;;;;;;18.51;66.23;101220.88;5073810;28;20473;-68
2023/06/08 02:14:17;;;;;;;7.20;2.80;;;;;;;18.49;66.83;101223.13;5073427;28;21043;-69
2023/06/08 02:16:46;;;;;;;7.30;2.77;;;;;;;18.47;66.54;101222.69;5073045;28;20441;-69
2023/06/08 02:19:13;;;;;;;6.90;2.50;;;;;;;18.45;67.13;101225.75;5073662;28;20455;-69
2023/06/08 02:21:41;;;;;;;9.87;3.27;;;;;;;18.34;67.40;101224.59;5073513;28;20543;-69
2023/06/08 02:24:07;;;;;;;6.80;2.77;;;;;;;18.29;67.25;101211.88;5073565;28;20469;-70
2023/06/08 02:26:34;;;;;;;9.67;3.23;;;;;;;18.24;67.28;101220.31;5073580;28;20456;-71
2023/06/08 02:29:01;;;;;;;7.77;3.30;;;;;;;18.12;67.86;101214.78;5073313;28;20458;-70
2023/06/08 02:31:29;;;;;;;8.10;3.53;;;;;;;18.05;67.59;101214.50;5073564;28;20524;-68
2023/06/08 02:33:55;;;;;;;6.93;2.77;;;;;;;18.03;68.28;101225.81;5073023;28;20891;-67
2023/06/08 02:36:23;;;;;;;5.97;2.53;;;;;;;18.04;68.56;101218.41;5073477;28;20467;-68
2023/06/08 02:38:49;;;;;;;7.17;3.20;;;;;;;18.00;68.35;101221.00;5073276;28;20473;-68
2023/06/08 02:41:16;;;;;;;8.37;3.40;;;;;;;17.93;68.98;101228.16;5072997;28;20524;-68
2023/06/08 02:43:42;;;;;;;10.70;3.77;;;;;;;17.92;69.43;101226.56;5073284;28;20499;-68
2023/06/08 02:46:09;;;;;;;7.47;3.87;;;;;;;17.84;70.32;101233.69;5073058;28;20537;-68
2023/06/08 02:48:37;;;;;;;9.43;3.40;;;;;;;17.81;70.48;101231.66;5073249;28;20441;-68
2023/06/08 02:51:04;;;;;;;9.90;3.37;;;;;;;17.70;71.09;101225.72;5072996;28;20524;-68
2023/06/08 02:53:30;;;;;;;8.00;3.47;;;;;;;17.60;71.38;101223.38;5072869;28;20465;-68
2023/06/08 02:55:58;;;;;;;8.47;3.73;;;;;;;17.57;71.76;101219.34;5073246;28;21064;-68
2023/06/08 02:58:24;;;;;;;8.80;3.50;;;;;;;17.55;71.50;101215.38;5073294;28;20437;-68
2023/06/08 03:00:53;;;;;;;9.97;3.63;;;;;;;17.53;72.01;101221.19;5072808;28;20520;-67
2023/06/08 03:03:22;;;;;;;9.03;3.70;;;;;;;17.54;72.88;101213.75;5073072;28;20465;-68
2023/06/08 03:05:59;;;;;;;11.90;3.67;;;;;;;17.45;73.15;101221.22;5073059;28;20454;-68
2023/06/08 03:08:25;;;;;;;9.17;4.40;;;;;;;17.49;72.88;101217.50;5073124;28;20429;-68
2023/06/08 03:10:52;;;;;;;7.70;3.97;;;;;;;17.39;73.11;101212.38;5073075;28;20476;-67
2023/06/08 03:13:18;;;;;;;11.83;4.30;;;;;;;17.34;73.26;101221.59;5072682;28;20875;-69
2023/06/08 03:15:45;;;;;;;8.87;3.73;;;;;;;17.36;72.83;101213.06;5073088;28;20433;-68
2023/06/08 03:18:12;;;;;;;8.73;3.40;;;;;;;17.35;73.28;101211.44;5072746;28;20494;-68
2023/06/08 03:20:40;;;;;;;8.40;3.80;;;;;;;17.35;74.23;101220.50;5072837;28;20568;-66
2023/06/08 03:28:02;;;;;;;7.73;3.43;;;;;;;17.20;74.86;101214.75;5052511;28;20470;-67
2023/06/08 03:30:30;;;;;;;9.30;3.97;;;;;;;17.16;75.36;101214.63;5056801;28;20525;-67
2023/06/08 03:32:57;;;;;;;8.63;3.27;;;;;;;17.17;75.13;101218.16;5056462;28;20524;-68
2023/06/08 03:35:23;;;;;;;6.97;3.57;;;;;;;17.16;75.75;101214.63;5056775;28;20462;-67
2023/06/08 03:37:50;;;;;;;14.10;4.13;;;;;;;17.08;76.43;101216.25;5056672;28;20491;-67
2023/06/08 03:40:17;;;;;;;9.53;3.73;;;;;;;17.11;76.04;101214.81;5056584;28;20486;-67
2023/06/08 03:42:43;;;;;;;9.67;3.43;;;;;;;17.06;76.05;101210.31;5056620;28;20452;-68
2023/06/08 03:45:11;;;;;;;10.63;4.67;;;;;;;17.08;76.35;101210.78;5056620;28;20504;-68
2023/06/08 03:47:38;;;;;;;9.93;3.70;;;;;;;17.10;77.06;101202.25;5056549;28;20442;-68
2023/06/08 03:50:05;;;;;;;8.13;3.40;;;;;;;17.13;76.88;101215.25;5056410;28;20437;-68
2023/06/08 03:52:32;;;;;;;11.97;5.00;;;;;;;17.18;76.81;101215.09;5056495;28;20445;-67
2023/06/08 03:54:58;;;;;;;14.20;4.50;;;;;;;17.18;76.76;101220.56;5056105;28;20549;-68
2023/06/08 03:57:25;;;;;;;9.40;3.67;;;;;;;17.25;75.95;101211.84;5056088;28;20446;-67
2023/06/08 03:59:52;;;;;;;9.40;3.30;;;;;;;17.26;75.14;101219.72;5056286;28;20442;-68
2023/06/08 04:02:20;;;;;;;9.93;3.80;;;;;;;17.31;75.58;101208.59;5055976;28;20485;-67
2023/06/08 04:04:47;;;;;;;8.83;3.50;;;;;;;17.36;75.58;101211.13;5056177;28;20462;-68
2023/06/08 04:07:14;;;;;;;9.27;3.57;;;;;;;17.38;75.14;101211.59;5056293;28;20977;-68
2023/06/08 04:09:40;;;;;;;8.23;3.40;;;;;;;17.46;74.22;101220.09;5056221;28;20441;-69
2023/06/08 04:12:08;;;;;;;7.40;3.13;;;;;;;17.54;72.69;101211.81;5056064;28;20521;-67
2023/06/08 04:14:34;;;;;;;6.63;3.07;;;;;;;17.63;71.77;101211.75;5055908;28;20834;-68
2023/06/08 04:17:01;;;;;;;10.90;3.93;;;;;;;17.70;71.10;101217.50;5056063;28;20484;-67
2023/06/08 04:19:29;;;;;;;8.00;3.47;;;;;;;17.73;71.85;101211.34;5055997;28;20453;-67
2023/06/08 04:21:56;;;;;;;9.93;3.63;;;;;;;17.76;72.48;101215.41;5055514;28;21023;-68
2023/06/08 04:24:23;;;;;;;9.53;3.30;;;;;;;17.86;70.92;101215.81;5055804;28;20502;-66
2023/06/08 04:26:50;;;;;;;7.80;2.90;;;;;;;17.93;71.23;101209.78;5055652;28;20481;-67
2023/06/08 04:29:17;;;;;;;8.60;2.90;;;;;;;18.01;70.17;101210.84;5055505;28;20857;-67
2023/06/08 04:31:43;;;;;;;9.30;3.30;;;;;;;18.10;69.18;101214.31;5055730;28;20442;-67
2023/06/08 04:34:11;;;;;;;7.00;2.60;;;;;;;18.19;68.83;101220.50;5055383;28;20464;-67
2023/06/08 04:36:42;;;;;;;8.27;3.47;;;;;;;18.26;68.10;101218.03;5055591;28;20548;-67
2023/06/08 04:39:09;;;;;;;7.20;3.00;;;;;;;18.35;68.00;101223.44;5054605;28;20418;-68
2023/06/08 04:41:35;;;;;;;7.23;3.07;;;;;;;18.44;66.73;101223.34;5055124;28;20836;-68
2023/06/08 04:44:02;;;;;;;10.87;3.10;;;;;;;18.51;66.73;101229.09;5055522;28;20468;-67
2023/06/08 04:46:30;;;;;;;6.93;2.70;;;;;;;18.57;67.39;101222.25;5055666;28;20450;-67
2023/06/08 04:48:57;;;;;;;7.13;3.00;;;;;;;18.63;67.57;101223.63;5055556;28;20462;-67
2023/06/08 04:51:24;;;;;;;8.10;3.47;;;;;;;18.72;67.23;101227.09;5055335;28;20500;-66
2023/06/08 04:53:54;;;;;;;9.50;3.23;;;;;;;18.78;65.98;101225.75;5055280;28;20502;-68
2023/06/08 04:56:20;;;;;;;8.93;3.27;;;;;;;18.85;65.09;101227.91;5055297;28;20446;-67
2023/06/08 04:58:47;;;;;;;8.47;3.10;;;;;;;18.90;64.30;101223.03;5055229;28;20446;-67
2023/06/08 05:01:13;;;;;;;9.93;3.50;;;;;;;18.92;63.00;101219.94;5055124;28;20586;-67
2023/06/08 05:03:40;;;;;;;7.77;3.20;;;;;;;18.93;62.30;101229.75;5055190;28;20545;-68
2023/06/08 05:06:07;;;;;;;9.20;3.20;;;;;;;18.94;62.35;101219.56;5054846;28;21010;-67
2023/06/08 05:08:33;;;;;;;6.93;2.77;;;;;;;18.99;62.42;101224.84;5055064;28;20439;-68
2023/06/08 05:11:01;;;;;;;8.93;3.50;;;;;;;19.03;65.12;101220.25;5055071;28;20537;-67
2023/06/08 05:13:28;;;;;;;8.97;2.87;;;;;;;18.99;64.10;101222.09;5054905;28;20446;-67
2023/06/08 05:15:58;;;;;;;6.63;2.87;;;;;;;19.01;63.47;101225.31;5055042;28;20474;-67
2023/06/08 05:18:24;;;;;;;7.90;2.70;;;;;;;18.99;62.13;101227.59;5055220;28;20450;-68
2023/06/08 05:20:51;;;;;;;7.50;2.93;;;;;;;18.94;61.08;101225.06;5054804;28;20477;-66
2023/06/08 05:23:17;;;;;;;10.97;3.67;;;;;;;18.89;58.79;101226.88;5054449;28;20955;-67
2023/06/08 05:25:44;;;;;;;8.80;3.77;;;;;;;18.87;59.33;101231.94;5054353;28;20970;-68
2023/06/08 05:28:12;;;;;;;8.83;3.67;;;;;;;18.84;62.17;101224.38;5054793;28;20450;-67
2023/06/08 05:30:39;;;;;;;11.03;3.00;;;;;;;18.87;64.59;101222.91;5054659;28;20525;-67
2023/06/08 05:33:05;;;;;;;7.20;2.60;;;;;;;18.89;64.81;101218.66;5054680;28;20533;-68
2023/06/08 05:35:32;;;;;;;7.77;3.00;;;;;;;18.96;62.34;101225.53;5054479;28;20567;-66
2023/06/08 05:37:59;;;;;;;7.40;2.60;;;;;;;18.98;60.87;101220.50;5054439;28;20529;-67
2023/06/08 05:40:25;;;;;;;6.40;2.63;;;;;;;19.00;58.96;101230.00;5054516;28;20438;-66
2023/06/08 05:42:52;;;;;;;9.67;3.63;;;;;;;19.00;59.73;101220.97;5054318;28;20488;-66
2023/06/08 05:45:20;;;;;;;8.20;2.70;;;;;;;19.08;57.90;101231.84;5054285;28;20469;-66
2023/06/08 05:47:47;;;;;;;8.27;3.53;;;;;;;19.08;56.93;101229.09;5053996;28;20960;-66
2023/06/08 05:50:13;;;;;;;6.73;2.63;;;;;;;19.03;56.07;101231.25;5053707;28;20449;-66
2023/06/08 05:52:40;;;;;;;6.23;2.40;;;;;;;19.11;55.95;101231.13;5053506;28;20518;-66
2023/06/08 05:55:07;;;;;;;8.33;2.90;;;;;;;19.21;57.60;101218.88;5054100;28;20473;-66
2023/06/08 05:57:33;;;;;;;9.87;3.77;;;;;;;19.32;59.65;101228.28;5053760;28;20473;-66
2023/06/08 06:00:00;;;;;;;9.90;3.93;;;;;;;19.45;59.72;101217.28;5053756;28;20970;-66
2023/06/08 06:02:28;;;;;;;7.07;2.73;;;;;;;19.55;60.79;101214.06;5053946;28;20489;-66
2023/06/08 06:04:54;;;;;;;7.17;2.83;;;;;;;19.60;60.30;101213.81;5053857;28;20895;-67
2023/06/08 06:07:21;;;;;;;8.77;2.60;;;;;;;19.61;58.91;101210.78;5053952;28;20438;-66
2023/06/08 06:09:48;;;;;;;7.80;2.97;;;;;;;19.73;58.01;101212.66;5053723;28;20438;-66
2023/06/08 06:12:14;;;;;;;7.90;3.00;;;;;;;19.81;58.22;101210.94;5053916;28;20814;-67
2023/06/08 06:14:41;;;;;;;6.30;2.40;;;;;;;19.89;58.15;101215.50;5053472;28;20496;-67
2023/06/08 06:17:09;;;;;;;8.53;3.13;;;;;;;19.94;56.35;101217.19;5053779;28;20468;-65
2023/06/08 06:19:37;;;;;;;7.63;2.73;;;;;;;19.99;56.43;101215.00;5053318;28;20474;-67
2023/06/08 06:22:05;;;;;;;7.10;2.63;;;;;;;20.07;55.34;101221.50;5053608;28;20528;-68
2023/06/08 06:24:32;;;;;;;7.17;2.40;;;;;;;20.13;55.43;101220.09;5053312;28;21022;-68
2023/06/08 06:26:59;;;;;;;7.07;2.83;;;;;;;20.24;56.22;101214.91;5053601;28;20508;-67
2023/06/08 06:29:26;;;;;;;7.70;2.50;;;;;;;20.31;54.27;101215.88;5053881;28;20528;-66
2023/06/08 06:31:53;;;;;;;7.37;2.93;;;;;;;20.48;54.55;101227.75;5053501;28;20473;-67
2023/06/08 06:34:20;;;;;;;7.77;2.30;;;;;;;20.69;53.75;101230.28;5053441;28;20462;-68
2023/06/08 06:36:48;;;;;;;8.60;2.53;;;;;;;20.90;53.40;101233.59;5053431;28;20454;-68
2023/06/08 06:39:15;;;;;;;6.20;2.00;;;;;;;21.11;53.00;101225.03;5053477;28;20446;-68
2023/06/08 06:41:41;;;;;;;6.47;2.50;;;;;;;21.35;53.16;101224.06;5053492;28;20520;-67
2023/06/08 06:44:08;;;;;;;7.27;2.83;;;;;;;21.58;51.71;101235.22;5053562;28;20905;-67
2023/06/08 06:46:35;;;;;;;7.50;2.97;;;;;;;21.78;50.28;101236.84;5053541;28;20441;-69
2023/06/08 06:49:01;;;;;;;6.30;2.17;;;;;;;21.96;50.37;101239.16;5053385;28;20448;-67
2023/06/08 06:51:28;;;;;;;8.47;2.77;;;;;;;22.12;50.32;101239.94;5053418;28;20440;-66
2023/06/08 06:53:56;;;;;;;7.80;2.30;;;;;;;22.28;49.52;101231.56;5053127;28;20832;-65
2023/06/08 06:56:23;;;;;;;7.10;2.40;;;;;;;22.44;50.34;101231.47;5052983;28;20474;-68
2023/06/08 06:58:49;;;;;;;7.97;2.60;;;;;;;22.61;49.00;101237.31;5053280;28;20474;-68
2023/06/08 07:01:16;;;;;;;7.77;2.50;;;;;;;22.81;47.55;101238.06;5052807;28;20997;-66
2023/06/08 07:03:44;;;;;;;8.10;2.90;;;;;;;23.02;46.80;101231.31;5052799;28;20469;-68
2023/06/08 07:06:11;;;;;;;7.23;2.67;;;;;;;23.21;45.54;101233.22;5053151;28;20846;-67
2023/06/08 07:08:38;;;;;;;7.17;2.53;;;;;;;23.38;45.89;101238.22;5053075;28;20537;-68
2023/06/08 07:11:06;;;;;;;7.60;2.77;;;;;;;23.46;45.39;101239.91;5053022;28;20485;-68
2023/06/08 07:13:33;;;;;;;7.03;2.60;;;;;;;23.49;43.61;101239.16;5052676;28;20584;-68
2023/06/08 07:16:00;;;;;;;7.00;2.20;;;;;;;23.48;44.97;101243.09;5053154;28;20446;-66
2023/06/08 07:18:27;;;;;;;5.00;1.30;;;;;;;23.50;44.78;101235.22;5053140;28;20435;-67
2023/06/08 07:20:54;;;;;;;7.30;2.63;;;;;;;23.55;44.69;101240.44;5052941;28;20444;-66
2023/06/08 07:23:20;;;;;;;10.77;2.80;;;;;;;23.50;44.81;101238.00;5052811;28;20927;-68
2023/06/08 07:25:47;;;;;;;6.30;2.30;;;;;;;23.48;44.50;101243.09;5052832;28;20529;-69
2023/06/08 07:28:16;;;;;;;7.43;2.03;;;;;;;23.42;44.44;101239.06;5053014;28;20454;-67
2023/06/08 07:30:43;;;;;;;8.57;3.20;;;;;;;23.41;45.29;101231.94;5052857;28;20471;-67
2023/06/08 07:33:10;;;;;;;8.00;2.70;;;;;;;23.44;45.90;101224.88;5052485;28;20445;-68
2023/06/08 07:35:36;;;;;;;6.77;2.40;;;;;;;23.55;44.84;101239.63;5052786;28;20793;-68
2023/06/08 07:38:03;;;;;;;6.70;2.27;;;;;;;23.73;44.92;101226.91;5053193;28;20442;-67
2023/06/08 07:40:29;;;;;;;5.63;2.27;;;;;;;23.85;44.98;101229.41;5052783;28;20811;-67
2023/06/08 07:42:56;;;;;;;9.83;2.77;;;;;;;24.02;41.59;101232.78;5052313;28;21018;-67
2023/06/08 07:45:25;;;;;;;6.10;2.30;;;;;;;24.15;43.23;101229.38;5052706;28;20557;-67
2023/06/08 07:47:51;;;;;;;6.00;2.50;;;;;;;24.37;43.45;101221.34;5052608;28;20450;-67
2023/06/08 07:50:18;;;;;;;6.87;2.60;;;;;;;24.54;43.67;101225.47;5052551;28;20442;-68
2023/06/08 07:52:45;;;;;;;4.90;1.70;;;;;;;24.69;44.31;101229.97;5052695;28;20438;-67
2023/06/08 07:55:11;;;;;;;5.00;1.67;;;;;;;24.76;43.89;101227.25;5052293;28;20926;-68
2023/06/08 07:57:38;;;;;;;6.47;2.50;;;;;;;24.84;43.46;101230.91;5052275;28;20470;-68
2023/06/08 08:00:06;;;;;;;7.70;2.50;;;;;;;24.94;43.79;101224.66;5052335;28;20525;-68
2023/06/08 08:02:34;;;;;;;5.87;2.27;;;;;;;24.96;42.79;101227.03;5052208;28;20533;-68
2023/06/08 08:05:00;;;;;;;13.40;2.67;;;;;;;25.00;43.21;101225.06;5052123;28;20542;-67
2023/06/08 08:07:27;;;;;;;6.80;3.00;;;;;;;25.10;43.29;101214.13;5052251;28;20954;-68
2023/06/08 08:09:53;;;;;;;5.30;1.90;;;;;;;25.25;42.99;101208.66;5052561;28;20438;-68
2023/06/08 08:12:20;;;;;;;6.97;2.67;;;;;;;25.40;43.40;101215.88;5052573;28;20482;-67
2023/06/08 08:14:47;;;;;;;18.67;2.90;;;;;;;25.54;43.75;101218.72;5053889;28;20468;-68
2023/06/08 08:17:13;;;;;;;8.60;3.10;;;;;;;25.70;41.77;101223.97;5056071;28;20444;-67
2023/06/08 08:19:41;;;;;;;7.10;2.33;;;;;;;25.81;41.83;101213.75;5056026;28;20480;-68
2023/06/08 08:22:08;;;;;;;9.30;3.03;;;;;;;25.98;42.33;101220.53;5055631;28;20482;-68
2023/06/08 08:24:36;;;;;;;8.90;2.60;;;;;;;26.06;41.02;101218.59;5055859;28;20545;-68
2023/06/08 08:27:03;;;;;;;6.07;2.00;;;;;;;26.15;41.32;101217.03;5055592;28;20462;-68
2023/06/08 08:29:29;;;;;;;6.13;2.23;;;;;;;26.17;40.96;101211.09;5055541;28;20954;-68
2023/06/08 08:31:56;;;;;;;5.50;1.73;;;;;;;26.26;41.49;101221.84;5055868;28;20813;-67
2023/06/08 08:34:23;;;;;;;5.77;2.03;;;;;;;26.30;40.65;101215.13;5055675;28;20505;-68
2023/06/08 08:36:51;;;;;;;5.90;2.07;;;;;;;26.41;41.40;101229.00;5055701;28;20489;-68
2023/06/08 08:39:18;;;;;;;6.53;2.57;;;;;;;26.46;39.30;101219.53;5055859;28;20446;-67
2023/06/08 08:41:46;;;;;;;6.20;2.33;;;;;;;26.48;39.29;101219.94;5055533;28;20534;-70
2023/06/08 08:44:16;;;;;;;6.63;2.50;;;;;;;26.42;39.33;101220.28;5055620;28;20549;-66
2023/06/08 08:46:43;;;;;;;8.40;2.33;;;;;;;26.33;40.23;101221.84;5055589;28;20450;-66
2023/06/08 08:49:15;;;;;;;6.37;1.63;;;;;;;26.28;40.68;101219.47;5055714;28;20808;-69
2023/06/08 08:51:43;;;;;;;8.23;2.73;;;;;;;26.18;39.71;101215.47;5055127;28;20472;-68
2023/06/08 08:54:12;;;;;;;6.43;2.60;;;;;;;26.19;39.78;101216.25;5055340;28;20472;-66
2023/06/08 08:56:38;;;;;;;7.37;2.73;;;;;;;26.27;40.18;101215.09;5055005;28;20557;-69
2023/06/08 08:59:06;;;;;;;8.33;2.93;;;;;;;26.28;40.08;101216.69;5055286;28;20534;-67
2023/06/08 09:01:34;;;;;;;8.70;2.90;;;;;;;26.33;39.56;101214.31;5055252;28;20521;-68
2023/06/08 09:04:00;;;;;;;5.57;1.77;;;;;;;26.37;39.22;101212.31;5055086;28;20516;-68
2023/06/08 09:06:28;;;;;;;6.90;2.50;;;;;;;26.41;38.92;101204.81;5055191;28;20443;-68
2023/06/08 09:08:55;;;;;;;6.27;2.40;;;;;;;26.47;39.06;101210.00;5055111;28;20540;-68
2023/06/08 09:11:23;;;;;;;7.57;2.67;;;;;;;26.50;39.22;101212.00;5055101;28;20446;-70
2023/06/08 09:14:06;;;;;;;7.33;2.70;;;;;;;26.64;39.41;101212.78;5054620;28;20472;-68
2023/06/08 09:16:42;;;;;;;9.20;3.00;;;;;;;26.76;39.47;101203.28;5055026;28;20423;-69
2023/06/08 09:19:09;;;;;;;7.20;2.63;;;;;;;26.86;38.96;101210.81;5054986;28;20484;-68
2023/06/08 09:21:36;;;;;;;7.00;2.20;;;;;;;27.05;38.78;101206.03;5054796;28;20489;-68
2023/06/08 09:24:27;;;;;;;6.87;2.33;;;;;;;27.21;39.05;101205.66;5054710;28;20657;-68
2023/06/08 09:27:06;;;;;;;6.27;2.50;;;;;;;27.24;37.72;101205.66;5062645;22;20494;-75
2023/06/08 09:29:36;;;;;;;6.60;2.60;;;;;;;27.30;38.41;101206.81;5054924;28;20446;-75
2023/06/08 09:32:03;;;;;;;6.83;2.20;;;;;;;27.36;37.28;101198.88;5079943;22;20956;-67
2023/06/08 09:34:33;;;;;;;5.93;2.13;;;;;;;27.41;37.74;101202.03;5073294;28;20485;-67
2023/06/08 09:37:10;;;;;;;5.30;2.00;;;;;;;27.59;38.14;101196.41;5061027;28;20454;-67
2023/06/08 09:39:40;;;;;;;6.60;2.27;;;;;;;27.73;37.33;101200.38;5054477;28;20458;-67
2023/06/08 09:42:09;;;;;;;7.90;2.47;;;;;;;27.92;38.20;101195.09;5054357;28;20442;-67
2023/06/08 09:44:36;;;;;;;6.50;2.73;;;;;;;28.10;38.33;101197.78;5054367;28;20446;-68
2023/06/08 09:47:21;;;;;;;6.97;2.57;;;;;;;28.19;36.80;101191.78;5054239;28;20498;-68
2023/06/08 09:49:48;;;;;;;9.63;3.10;;;;;;;28.25;36.97;101184.59;5054330;28;20427;-67
2023/06/08 09:52:16;;;;;;;8.73;2.60;;;;;;;28.23;36.03;101192.53;5053921;28;20872;-67
2023/06/08 09:54:46;;;;;;;7.97;2.73;;;;;;;28.31;36.57;101193.31;5054180;28;20480;-68
2023/06/08 09:57:16;;;;;;;5.23;1.83;;;;;;;28.38;37.26;101182.16;5054077;28;20462;-68
2023/06/08 09:59:47;;;;;;;7.40;2.70;;;;;;;28.41;37.21;101184.09;5054123;28;20533;-67
2023/06/08 10:02:22;;;;;;;5.57;2.20;;;;;;;28.52;36.70;101184.03;5053702;28;20430;-67
2023/06/08 10:04:54;;;;;;;7.77;2.70;;;;;;;28.69;37.35;101177.53;5053990;28;20515;-68
2023/06/08 10:07:24;;;;;;;6.53;1.70;;;;;;;28.89;36.96;101181.31;5053896;28;20466;-68
2023/06/08 10:09:59;;;;;;;6.20;2.10;;;;;;;29.08;37.11;101182.75;5053925;28;20434;-68
2023/06/08 10:12:30;;;;;;;6.37;2.50;;;;;;;29.28;36.32;101174.59;5053899;28;20476;-67
2023/06/08 10:14:58;;;;;;;6.87;2.70;;;;;;;29.42;35.46;101184.78;5053883;28;20446;-68
2023/06/08 10:17:26;;;;;;;7.40;2.93;;;;;;;29.45;35.85;101175.59;5053715;28;20462;-67
2023/06/08 10:19:53;;;;;;;5.43;2.23;;;;;;;29.46;34.56;101173.59;5053721;28;20500;-68
2023/06/08 10:22:21;;;;;;;6.53;2.40;;;;;;;29.42;34.33;101174.41;5053248;28;20446;-67
2023/06/08 10:24:48;;;;;;;6.70;2.23;;;;;;;29.60;34.51;101176.25;5053365;28;20446;-69
2023/06/08 10:27:18;;;;;;;7.63;2.20;;;;;;;29.84;34.55;101169.56;5053548;28;20466;-67
2023/06/08 10:29:55;;;;;;;6.50;2.50;;;;;;;30.11;33.90;101171.59;5053560;28;20446;-67
2023/06/08 10:32:30;;;;;;;6.10;2.63;;;;;;;30.19;33.52;101169.47;5053423;28;20477;-69
2023/06/08 10:34:57;;;;;;;6.93;2.63;;;;;;;30.17;32.21;101164.31;5053465;28;20483;-67
2023/06/08 10:37:28;;;;;;;7.20;2.77;;;;;;;30.28;33.39;101164.97;5052511;28;20470;-68
2023/06/08 10:39:56;;;;;;;7.07;2.50;;;;;;;30.61;33.23;101176.41;5053110;28;21213;-67
2023/06/08 10:42:23;;;;;;;6.10;2.47;;;;;;;30.82;32.46;101172.50;5053381;28;20469;-67
2023/06/08 10:44:58;;;;;;;6.57;2.27;;;;;;;30.87;31.54;101163.63;5053095;28;20482;-67
2023/06/08 10:47:25;;;;;;;5.53;2.47;;;;;;;30.99;32.75;101162.19;5052953;28;20462;-67
2023/06/08 10:49:57;;;;;;;6.27;2.17;;;;;;;31.22;33.60;101166.97;5052955;28;20533;-69
2023/06/08 10:52:25;;;;;;;6.60;2.60;;;;;;;31.44;32.35;101159.75;5053283;28;20449;-67
2023/06/08 10:54:56;;;;;;;5.90;2.13;;;;;;;31.38;32.91;101155.88;5052979;28;20435;-67
2023/06/08 10:57:37;;;;;;;7.40;2.43;;;;;;;31.41;31.09;101155.00;5053213;28;20834;-67
2023/06/08 11:00:35;;;;;;;7.17;2.47;;;;;;;31.38;32.96;101158.66;5052870;28;20437;-67
2023/06/08 11:03:05;;;;;;;4.80;1.53;;;;;;;31.20;33.56;101152.59;5033222;28;20478;-68
2023/06/08 11:05:32;;;;;;;6.50;2.47;;;;;;;30.94;33.24;101157.09;5033163;28;20492;-68
2023/06/08 11:08:00;;;;;;;6.30;2.53;;;;;;;31.00;32.18;101149.78;5033115;28;20451;-70
2023/06/08 11:10:27;;;;;;;6.47;2.47;;;;;;;31.09;31.67;101147.22;5033160;28;20443;-69
2023/06/08 11:12:54;;;;;;;7.27;3.07;;;;;;;31.15;32.05;101142.69;5032723;28;20944;-69
2023/06/08 11:15:21;;;;;;;6.10;2.50;;;;;;;31.36;32.21;101150.72;5033078;28;20537;-69
2023/06/08 11:17:53;;;;;;;5.70;2.40;;;;;;;31.54;31.77;101147.53;5033048;28;20513;-68
2023/06/08 11:20:25;;;;;;;8.13;3.17;;;;;;;31.91;30.41;101139.97;5032791;28;20878;-68
2023/06/08 11:22:52;;;;;;;6.30;2.60;;;;;;;32.29;30.92;101134.66;5033038;28;20467;-69
2023/06/08 11:25:19;;;;;;;6.93;2.63;;;;;;;32.71;30.14;101126.41;5032750;28;20965;-69
2023/06/08 11:27:46;;;;;;;6.17;2.57;;;;;;;32.86;31.39;101121.22;5032850;28;20463;-69
2023/06/08 11:30:17;;;;;;;5.87;2.10;;;;;;;33.30;29.90;101116.81;5033110;28;20451;-69
2023/06/08 11:32:46;;;;;;;6.13;2.20;;;;;;;33.51;29.13;101128.66;5032542;28;20505;-69